Time,TemperatureF,DewpointF,PressureIn,WindDirection,WindDirectionDegrees,WindSpeedMPH,WindSpeedGustMPH,Humidity,HourlyPrecipIn,Conditions,Clouds,dailyrainin,SoftwareType,DateUTC
2013-03-11 00:03:00,47.9,46.0,30.25,SE,128,1.0,5.0,93,0.00,,,0.00,weatherlink.com 1.10,2013-03-11 07:03:00,
2013-03-11 00:18:00,47.7,46.0,30.25,SSW,204,1.0,5.0,93,0.00,,,0.00,weatherlink.com 1.10,2013-03-11 07:18:00,
2013-03-11 00:33:00,47.7,46.0,30.24,WSW,242,0.0,4.0,93,0.00,,,0.00,weatherlink.com 1.10,2013-03-11 07:33:00,
2013-03-11 00:48:00,47.6,46.0,30.24,SSE,149,0.0,5.0,94,0.00,,,0.00,weatherlink.com 1.10,2013-03-11 07:48:00,
2013-03-11 01:03:00,47.5,46.0,30.24,SE,145,3.0,4.0,94,0.00,,,0.00,weatherlink.com 1.10,2013-03-11 08:03:00,
2013-03-11 01:18:00,47.3,46.0,30.23,SSE,167,1.0,4.0,94,0.00,,,0.00,weatherlink.com 1.10,2013-03-11 08:18:00,
2013-03-11 01:33:00,47.3,46.0,30.24,SE,134,0.0,4.0,94,0.00,,,0.00,weatherlink.com 1.10,2013-03-11 08:33:00,
2013-03-11 01:48:00,47.0,45.0,30.24,SSE,156,2.0,5.0,94,0.00,,,0.00,weatherlink.com 1.10,2013-03-11 08:48:00,
2013-03-11 02:03:00,46.9,46.0,30.24,SSE,162,2.0,5.0,95,0.00,,,0.00,weatherlink.com 1.10,2013-03-11 09:03:00,
2013-03-11 02:18:00,47.1,46.0,30.24,SE,136,2.0,4.0,95,0.00,,,0.00,weatherlink.com 1.10,2013-03-11 09:18:00,
2013-03-11 02:33:00,47.2,46.0,30.24,ESE,110,2.0,4.0,95,0.00,,,0.00,weatherlink.com 1.10,2013-03-11 09:33:00,
2013-03-11 02:48:00,47.1,46.0,30.24,SE,131,0.0,4.0,95,0.00,,,0.00,weatherlink.com 1.10,2013-03-11 09:48:00,
2013-03-11 03:03:00,46.8,46.0,30.24,SSE,158,0.0,4.0,95,0.00,,,0.00,weatherlink.com 1.10,2013-03-11 10:03:00,
2013-03-11 03:18:00,46.4,45.0,30.23,SSE,162,0.0,4.0,95,0.00,,,0.00,weatherlink.com 1.10,2013-03-11 10:18:00,
2013-03-11 03:33:00,46.1,45.0,30.23,ESE,115,2.0,2.0,95,0.00,,,0.00,weatherlink.com 1.10,2013-03-11 10:33:00,
2013-03-11 03:48:00,45.5,44.0,30.22,SE,131,0.0,2.0,95,0.00,,,0.00,weatherlink.com 1.10,2013-03-11 10:48:00,
2013-03-11 04:18:00,45.5,44.0,30.22,SE,143,0.0,2.0,95,0.00,,,0.00,weatherlink.com 1.10,2013-03-11 11:18:00,
2013-03-11 04:33:00,45.3,44.0,30.22,ESE,116,0.0,0.0,95,0.00,,,0.00,weatherlink.com 1.10,2013-03-11 11:33:00,
2013-03-11 04:48:00,44.8,44.0,30.22,ENE,67,0.0,0.0,95,0.00,,,0.00,weatherlink.com 1.10,2013-03-11 11:48:00,
2013-03-11 05:03:00,44.1,43.0,30.22,ENE,60,0.0,0.0,94,0.00,,,0.00,weatherlink.com 1.10,2013-03-11 12:03:00,
2013-03-11 05:18:00,44.5,43.0,30.22,East,88,1.0,2.0,95,0.00,,,0.00,weatherlink.com 1.10,2013-03-11 12:18:00,
2013-03-11 05:33:00,45.1,44.0,30.22,ESE,103,0.0,0.0,95,0.00,,,0.00,weatherlink.com 1.10,2013-03-11 12:33:00,
2013-03-11 05:48:00,44.7,43.0,30.22,East,91,0.0,1.0,94,0.00,,,0.00,weatherlink.com 1.10,2013-03-11 12:48:00,
2013-03-11 06:03:00,43.9,41.0,30.22,ENE,75,0.0,0.0,90,0.00,,,0.00,weatherlink.com 1.10,2013-03-11 13:03:00,
2013-03-11 06:18:00,44.7,40.0,30.22,ESE,109,0.0,0.0,83,0.00,,,0.00,weatherlink.com 1.10,2013-03-11 13:18:00,
2013-03-11 06:33:00,45.1,39.0,30.23,ESE,105,0.0,0.0,78,0.00,,,0.00,weatherlink.com 1.10,2013-03-11 13:33:00,
2013-03-11 06:48:00,45.6,42.0,30.23,ESE,105,0.0,0.0,87,0.00,,,0.00,weatherlink.com 1.10,2013-03-11 13:48:00,
2013-03-11 07:03:00,45.7,42.0,30.23,ESE,104,0.0,0.0,86,0.00,,,0.00,weatherlink.com 1.10,2013-03-11 14:03:00,
2013-03-11 07:18:00,45.4,41.0,30.23,ESE,103,0.0,2.0,83,0.00,,,0.00,weatherlink.com 1.10,2013-03-11 14:18:00,
2013-03-11 07:33:00,45.6,41.0,30.23,ESE,121,1.0,2.0,85,0.00,,,0.00,weatherlink.com 1.10,2013-03-11 14:33:00,
2013-03-11 07:48:00,45.8,43.0,30.23,ESE,114,0.0,1.0,90,0.00,,,0.00,weatherlink.com 1.10,2013-03-11 14:48:00,
2013-03-11 08:03:00,45.6,43.0,30.23,ESE,102,0.0,0.0,91,0.00,,,0.00,weatherlink.com 1.10,2013-03-11 15:03:00,
2013-03-11 08:18:00,45.3,42.0,30.23,ENE,58,1.0,1.0,87,0.00,,,0.00,weatherlink.com 1.10,2013-03-11 15:18:00,
2013-03-11 08:33:00,47.3,43.0,30.23,NE,56,0.0,0.0,85,0.00,,,0.00,weatherlink.com 1.10,2013-03-11 15:33:00,
2013-03-11 08:49:00,49.8,43.0,30.23,ENE,57,0.0,0.0,78,0.00,,,0.00,weatherlink.com 1.10,2013-03-11 15:49:00,
2013-03-11 09:04:00,51.3,45.0,30.23,ENE,57,0.0,0.0,78,0.00,,,0.00,weatherlink.com 1.10,2013-03-11 16:04:00,
2013-03-11 09:19:00,51.8,45.0,30.23,WNW,298,0.0,0.0,78,0.00,,,0.00,weatherlink.com 1.10,2013-03-11 16:19:00,
2013-03-11 09:34:00,52.2,46.0,30.23,WNW,302,0.0,0.0,79,0.00,,,0.00,weatherlink.com 1.10,2013-03-11 16:34:00,
2013-03-11 09:49:00,53.8,46.0,30.23,West,266,0.0,2.0,76,0.00,,,0.00,weatherlink.com 1.10,2013-03-11 16:49:00,
2013-03-11 10:04:00,54.1,46.0,30.23,NW,305,0.0,0.0,73,0.00,,,0.00,weatherlink.com 1.10,2013-03-11 17:04:00,
2013-03-11 10:19:00,55.2,46.0,30.23,WSW,252,0.0,0.0,71,0.00,,,0.00,weatherlink.com 1.10,2013-03-11 17:19:00,
2013-03-11 10:34:00,56.8,47.0,30.23,SW,235,1.0,2.0,69,0.00,,,0.00,weatherlink.com 1.10,2013-03-11 17:34:00,
2013-03-11 10:49:00,57.2,46.0,30.23,NW,309,2.0,3.0,66,0.00,,,0.00,weatherlink.com 1.10,2013-03-11 17:49:00,
2013-03-11 11:04:00,57.4,47.0,30.23,NW,307,3.0,5.0,69,0.00,,,0.00,weatherlink.com 1.10,2013-03-11 18:04:00,
2013-03-11 11:19:00,57.6,49.0,30.23,NW,312,4.0,5.0,74,0.00,,,0.00,weatherlink.com 1.10,2013-03-11 18:19:00,
2013-03-11 11:34:00,57.2,49.0,30.23,NW,316,1.0,6.0,74,0.00,,,0.00,weatherlink.com 1.10,2013-03-11 18:34:00,
2013-03-11 11:49:00,58.6,49.0,30.22,NW,309,4.0,6.0,71,0.00,,,0.00,weatherlink.com 1.10,2013-03-11 18:49:00,
2013-03-11 12:04:00,60.3,50.0,30.21,WSW,240,0.0,6.0,68,0.00,,,0.00,weatherlink.com 1.10,2013-03-11 19:04:00,
2013-03-11 12:19:00,62.2,50.0,30.20,West,275,2.0,5.0,65,0.00,,,0.00,weatherlink.com 1.10,2013-03-11 19:19:00,
2013-03-11 12:34:00,66.0,51.0,30.20,WSW,252,2.0,5.0,58,0.00,,,0.00,weatherlink.com 1.10,2013-03-11 19:34:00,
2013-03-11 12:49:00,67.3,49.0,30.19,ESE,116,4.0,6.0,52,0.00,,,0.00,weatherlink.com 1.10,2013-03-11 19:49:00,
2013-03-11 13:04:00,67.8,49.0,30.18,NW,319,6.0,13.0,51,0.00,,,0.00,weatherlink.com 1.10,2013-03-11 20:04:00,
2013-03-11 13:34:00,67.0,50.0,30.17,SW,228,1.0,7.0,54,0.00,,,0.00,weatherlink.com 1.10,2013-03-11 20:34:00,
2013-03-11 13:49:00,66.9,50.0,30.16,NW,309,3.0,6.0,54,0.00,,,0.00,weatherlink.com 1.10,2013-03-11 20:49:00,
2013-03-11 14:04:00,66.9,49.0,30.16,WNW,300,4.0,8.0,52,0.00,,,0.00,weatherlink.com 1.10,2013-03-11 21:04:00,
2013-03-11 14:20:00,68.4,49.0,30.16,SE,146,3.0,6.0,51,0.00,,,0.00,weatherlink.com 1.10,2013-03-11 21:20:00,
2013-03-11 14:35:00,68.2,49.0,30.15,SSW,203,3.0,8.0,51,0.00,,,0.00,weatherlink.com 1.10,2013-03-11 21:35:00,
2013-03-11 14:50:00,67.2,48.0,30.15,SSE,160,6.0,10.0,51,0.00,,,0.00,weatherlink.com 1.10,2013-03-11 21:50:00,
2013-03-11 15:05:00,66.8,49.0,30.14,SW,215,6.0,11.0,53,0.00,,,0.00,weatherlink.com 1.10,2013-03-11 22:05:00,
2013-03-11 15:20:00,65.9,49.0,30.14,South,187,6.0,10.0,55,0.00,,,0.00,weatherlink.com 1.10,2013-03-11 22:20:00,
2013-03-11 15:35:00,66.1,48.0,30.14,SSE,149,5.0,11.0,53,0.00,,,0.00,weatherlink.com 1.10,2013-03-11 22:35:00,
2013-03-11 15:50:00,64.2,49.0,30.14,SSE,163,10.0,11.0,58,0.00,,,0.00,weatherlink.com 1.10,2013-03-11 22:50:00,
2013-03-11 16:05:00,64.4,49.0,30.13,SSE,160,6.0,10.0,57,0.00,,,0.00,weatherlink.com 1.10,2013-03-11 23:05:00,
2013-03-11 16:20:00,65.2,49.0,30.13,SW,214,5.0,10.0,56,0.00,,,0.00,weatherlink.com 1.10,2013-03-11 23:20:00,
2013-03-11 16:35:00,65.4,50.0,30.13,SE,140,3.0,9.0,58,0.00,,,0.00,weatherlink.com 1.10,2013-03-11 23:35:00,
2013-03-11 16:50:00,65.2,48.0,30.12,South,172,5.0,9.0,55,0.00,,,0.00,weatherlink.com 1.10,2013-03-11 23:50:00,
2013-03-11 17:05:00,63.9,49.0,30.11,SE,143,5.0,12.0,59,0.00,,,0.00,weatherlink.com 1.10,2013-03-12 00:05:00,
2013-03-11 17:20:00,63.0,48.0,30.11,SSE,150,2.0,11.0,59,0.00,,,0.00,weatherlink.com 1.10,2013-03-12 00:20:00,
2013-03-11 17:35:00,62.6,47.0,30.10,SE,131,5.0,11.0,58,0.00,,,0.00,weatherlink.com 1.10,2013-03-12 00:35:00,
2013-03-11 17:50:00,61.6,47.0,30.10,South,181,5.0,12.0,60,0.00,,,0.00,weatherlink.com 1.10,2013-03-12 00:50:00,
2013-03-11 18:05:00,60.5,48.0,30.10,ESE,117,1.0,10.0,64,0.00,,,0.00,weatherlink.com 1.10,2013-03-12 01:05:00,
2013-03-11 18:20:00,59.4,49.0,30.10,SE,139,6.0,10.0,68,0.00,,,0.00,weatherlink.com 1.10,2013-03-12 01:20:00,
2013-03-11 18:35:00,57.4,49.0,30.10,SE,134,7.0,11.0,73,0.00,,,0.00,weatherlink.com 1.10,2013-03-12 01:35:00,
2013-03-11 18:50:00,56.1,49.0,30.10,SSE,162,5.0,12.0,76,0.00,,,0.00,weatherlink.com 1.10,2013-03-12 01:50:00,
2013-03-11 19:05:00,54.1,49.0,30.09,South,172,2.0,12.0,82,0.00,,,0.00,weatherlink.com 1.10,2013-03-12 02:05:00,
2013-03-11 19:35:00,51.5,48.0,30.10,SSW,205,5.0,12.0,89,0.00,,,0.00,weatherlink.com 1.10,2013-03-12 02:35:00,
2013-03-11 19:50:00,51.0,48.0,30.10,South,177,2.0,10.0,90,0.00,,,0.00,weatherlink.com 1.10,2013-03-12 02:50:00,
2013-03-11 20:05:00,50.7,48.0,30.10,SSW,193,3.0,9.0,91,0.00,,,0.00,weatherlink.com 1.10,2013-03-12 03:05:00,
2013-03-11 20:20:00,50.4,48.0,30.10,SSE,159,5.0,9.0,91,0.00,,,0.00,weatherlink.com 1.10,2013-03-12 03:20:00,
2013-03-11 20:35:00,50.4,48.0,30.11,SSE,159,4.0,8.0,91,0.00,,,0.00,weatherlink.com 1.10,2013-03-12 03:35:00,
2013-03-11 20:50:00,50.2,48.0,30.11,SSW,203,5.0,6.0,92,0.00,,,0.00,weatherlink.com 1.10,2013-03-12 03:50:00,
2013-03-11 21:05:00,49.9,48.0,30.10,SSE,161,7.0,7.0,92,0.00,,,0.00,weatherlink.com 1.10,2013-03-12 04:05:00,
2013-03-11 21:20:00,49.9,48.0,30.11,SSW,200,2.0,4.0,92,0.00,,,0.00,weatherlink.com 1.10,2013-03-12 04:20:00,
2013-03-11 21:35:00,49.6,47.0,30.11,SW,219,2.0,3.0,92,0.00,,,0.00,weatherlink.com 1.10,2013-03-12 04:35:00,
2013-03-11 21:50:00,49.6,48.0,30.12,SSW,193,1.0,5.0,93,0.00,,,0.00,weatherlink.com 1.10,2013-03-12 04:50:00,
2013-03-11 22:05:00,49.4,48.0,30.11,SSW,195,2.0,6.0,93,0.00,,,0.00,weatherlink.com 1.10,2013-03-12 05:05:00,
2013-03-11 22:21:00,49.3,47.0,30.11,SSE,159,4.0,7.0,93,0.00,,,0.00,weatherlink.com 1.10,2013-03-12 05:21:00,
2013-03-11 22:35:00,49.3,48.0,30.11,SW,231,2.0,7.0,94,0.00,,,0.00,weatherlink.com 1.10,2013-03-12 05:35:00,
2013-03-11 22:50:00,49.3,48.0,30.11,SW,214,0.0,6.0,94,0.00,,,0.00,weatherlink.com 1.10,2013-03-12 05:50:00,
2013-03-11 23:05:00,49.4,48.0,30.12,SSE,156,3.0,6.0,94,0.00,,,0.00,weatherlink.com 1.10,2013-03-12 06:05:00,
2013-03-11 23:20:00,49.5,48.0,30.12,SW,229,4.0,8.0,94,0.00,,,0.00,weatherlink.com 1.10,2013-03-12 06:20:00,
2013-03-11 23:35:00,49.5,48.0,30.12,SSE,152,4.0,10.0,94,0.00,,,0.00,weatherlink.com 1.10,2013-03-12 06:35:00,
2013-03-11 23:50:00,49.3,48.0,30.12,SE,125,5.0,9.0,94,0.00,,,0.00,weatherlink.com 1.10,2013-03-12 06:50:00,